General Viamonte, Argentina
Current Conditions -  °F | °C
As of 5:00 AM on Sunday 26 Oct 2014 (Local Time) from SAOC Reporting Station
Clear Clear  
Wind Chill: 77°   Ceiling: Unl
Heat Index: 78°   Visibility: 6mi
Dew Point: 52°   Wind: 17mph
Humidity: 41%   Direction: 340°NNW
Pressure: 29.74"   Gusts: 29mph
Location:  33.81°S, 62.97°W
Report Text: SAOC 260800Z 34015G25KT CAVOK 25/11 Q1007
Loading
Personal Weather Stations






























Interactive Weather Map
Tropical Storm Tracking
New forecast layout! Learn more

10-Day Weather Forecast

Advertisements
Track Severe Weather on mobile